Pagrindinis puslapis
METAR-TAF:

METAR-TAF

Oro uostai :

Mary, Turkmėnija

platuma: 37-36-24N, ilguma: 061-54-05E, Aukštis: 222 m

Dabartinis oras

Ataskaita buvo paskelbta 33 minutes, ne 12:00 UTC
Vėjas 10 kt iš Šiaurės/Šiaurės Vakarų
Temperatūra 39°C
Drėgmė 12%
Slėgis 1006 hPa
Matomumas 10 km arba daugiau
nėra debesų žemiau 1500 m ir nėra kamuolinių lietaus debesų

METAR: UTAM 311200Z 33010KT CAVOK 39/05 Q1006 R88/CLRD70 NOSIG

Laikas: 17:33 (12:33 UTC)

Prognozė

Ataskaita buvo paskelbta 2 valandos ir 3 minutes, ne 10:30 UTC
Prognozė galioja nuo 31 metu 12 UTC su 01 metu 12 UTC
Vėjas 16 kt iš Šiaurės
Matomumas: 5000 m
Laikinai
nuo 31 metu 12 UTC su 31 metu 16 UTC
Vėjas 14 kt iš Šiaurės Vakarų su gūsio iki 24 kt
Matomumas: 3000 m
Dulkes pustymas pažeme
Tapsmas
nuo 31 metu 16 UTC su 31 metu 17 UTC
Vėjas 14 kt iš Šiaurės/Šiaurės Vakarų

TAF: UTAM 311030Z 3112/0112 35016KT 5000 NSC TEMPO 3112/3116 31014G24KT 3000 DRDU BECMG 3116/3117 33014KT

Orai ataskaitas ir orų prognozės (METAR, TAF).

turimą stotys yra geltonos ir raudonos taškus žemėlapyje.

Perkelti pele per norėdami pamatyti stoties vardą.

Tada spustelėkite, norėdami matyti oro stebėjimo ir prognozės.

Norėdami pakeisti žemėlapį: spustelėkite ant žalios mygtukų su juodo kryžiaus žemyn,; žalią mygtuką su brūkšneliu, jei norite nutolinti; arba žalių rodyklių gretimoms žemėlapius.


METAR-TAF: